This is the latest recevied weather packets stored in our database for station/object NA4DL. If no packets are shown the sender has not sent any weather packets the latest 10 day(s).
| Time | Temp. | Humidity | Pressure | Rain* | Wind** | Luminosity | Snow |
|---|---|---|---|---|---|---|---|
| 1777364423 | 16.11° C | 99% | 1014.6 hPa | 12.95 mm | - | 0 W/m² | - |
| 1777363824 | 16.11° C | 99% | 1014 hPa | 12.19 mm | - | 0 W/m² | - |
| 1777362018 | 19.44° C | 94% | 1015.8 hPa | 3.3 mm | - | 0 W/m² | - |
| 1777360244 | 20° C | 97% | 1011.7 hPa | 0.25 mm | - | 0 W/m² | - |
| 1777359644 | 20.56° C | 98% | 1011.5 hPa | 0.25 mm | - | 0 W/m² | - |
| 1777356625 | 20.56° C | 99% | 1012.9 hPa | 5.08 mm | - | 0 W/m² | - |
| 1777350623 | 23.33° C | 83% | 1011.5 hPa | 0.25 mm | - | 0 W/m² | - |
| 1777345819 | 23.89° C | 78% | 1011.5 hPa | 0 mm | - | 0 W/m² | - |
| 1777344019 | 24.44° C | 77% | 1011.2 hPa | 0 mm | - | 0 W/m² | - |
| 1777341637 | 24.44° C | 76% | 1010.9 hPa | 0 mm | - | 0 W/m² | - |
| 1777338618 | 25° C | 74% | 1010.9 hPa | 0 mm | - | 0 W/m² | - |
| 1777336818 | 25° C | 73% | 1010.7 hPa | 0 mm | - | 0 W/m² | - |
| 1777330217 | 26.67° C | 68% | 1010.5 hPa | 0 mm | - | 83 W/m² | - |
| 1777327221 | 26.67° C | 66% | 1010.7 hPa | 0 mm | - | 254 W/m² | - |
| 1777326618 | 27.22° C | 66% | 1010.7 hPa | 0 mm | - | 236 W/m² | - |
| 1777326058 | 27.22° C | 64% | 1010.8 hPa | 0 mm | - | 389 W/m² | - |
| 1777325418 | 27.78° C | 65% | 1010.9 hPa | 0 mm | - | 342 W/m² | - |
| 1777324838 | 27.22° C | 64% | 1011 hPa | 0 mm | - | 445 W/m² | - |
| 1777322419 | 26.67° C | 66% | 1011.5 hPa | 0 mm | - | 203 W/m² | - |
| 1777309240 | 25° C | 70% | 1013.8 hPa | 0 mm | - | 554 W/m² | - |
| 1777308640 | 25° C | 70% | 1013.9 hPa | 0 mm | - | 435 W/m² | - |
| 1777308020 | 25° C | 69% | 1014 hPa | 0 mm | - | 319 W/m² | - |
| 1777306237 | 23.89° C | 73% | 1014.2 hPa | 0 mm | - | 140 W/m² | - |
| 1777302618 | 21.11° C | 80% | 1014 hPa | 0 mm | - | 195 W/m² | - |
| 1777302038 | 21.11° C | 81% | 1014.1 hPa | 0 mm | - | 181 W/m² | - |
* Rain latest hour (hover to see other rain measurements)
** Current wind speed in m/s (hover to see current wind gust speed)